createdAt,value
2023-12-15T00:00:57.895Z,14.60
2023-12-15T00:03:25.569Z,9.80
2023-12-15T00:05:53.421Z,11.10
2023-12-15T00:08:20.925Z,11.70
2023-12-15T00:10:48.468Z,10.70
2023-12-15T00:13:15.956Z,9.80
2023-12-15T00:15:44.301Z,10.30
2023-12-15T00:18:11.843Z,9.50
2023-12-15T00:20:42.239Z,9.60
2023-12-15T00:23:09.805Z,9.50
2023-12-15T00:25:37.466Z,9.50
2023-12-15T00:28:05.250Z,7.90
2023-12-15T00:30:32.760Z,8.30
2023-12-15T00:33:00.759Z,9.10
2023-12-15T00:35:28.756Z,8.00
2023-12-15T00:37:56.547Z,8.40
2023-12-15T00:40:25.042Z,7.50
2023-12-15T00:42:52.638Z,8.00
2023-12-15T00:45:20.140Z,8.00
2023-12-15T00:47:48.119Z,7.30
2023-12-15T00:50:16.424Z,7.40
2023-12-15T00:52:44.164Z,9.00
2023-12-15T00:55:12.273Z,7.50
2023-12-15T00:57:40.000Z,8.10
2023-12-15T01:00:08.681Z,9.20
2023-12-15T01:02:36.254Z,10.40
2023-12-15T01:05:05.383Z,10.10
2023-12-15T01:07:33.340Z,10.50
2023-12-15T01:10:01.159Z,10.50
2023-12-15T01:12:28.596Z,9.50
2023-12-15T01:14:56.114Z,9.90
2023-12-15T01:17:23.719Z,9.50
2023-12-15T01:19:51.322Z,9.30
2023-12-15T01:22:18.852Z,8.80
2023-12-15T01:24:46.851Z,9.30
2023-12-15T01:27:14.385Z,9.00
2023-12-15T01:29:41.919Z,8.00
2023-12-15T01:32:09.452Z,8.30
2023-12-15T01:34:37.226Z,8.30
2023-12-15T01:37:05.002Z,8.20
2023-12-15T01:39:33.503Z,7.60
2023-12-15T01:42:00.988Z,7.90
2023-12-15T01:44:28.686Z,9.30
2023-12-15T01:46:56.176Z,8.80
2023-12-15T01:49:25.551Z,7.70
2023-12-15T01:51:53.502Z,7.80
2023-12-15T01:54:20.927Z,9.00
2023-12-15T01:56:48.647Z,8.50
2023-12-15T01:59:16.122Z,9.70
2023-12-15T02:01:43.562Z,7.80
2023-12-15T02:04:11.109Z,9.00
2023-12-15T02:06:39.095Z,9.80
2023-12-15T02:09:07.751Z,8.20
2023-12-15T02:11:35.300Z,7.40
2023-12-15T02:14:02.956Z,7.70
2023-12-15T02:16:30.439Z,8.00
2023-12-15T02:18:58.360Z,8.00
2023-12-15T02:21:25.898Z,9.50
2023-12-15T02:23:53.414Z,7.90
2023-12-15T02:26:20.932Z,8.50
2023-12-15T02:28:49.327Z,8.10
2023-12-15T02:31:18.763Z,8.80
2023-12-15T02:33:46.436Z,8.30
2023-12-15T02:36:21.581Z,9.00
2023-12-15T02:38:49.483Z,8.50
2023-12-15T02:41:17.136Z,8.60
2023-12-15T02:43:44.634Z,9.30
2023-12-15T02:46:12.487Z,8.70
2023-12-15T02:48:40.235Z,9.80
2023-12-15T02:51:08.909Z,10.00
2023-12-15T02:53:36.846Z,11.20
2023-12-15T02:56:05.430Z,12.50
2023-12-15T02:58:33.702Z,11.50
2023-12-15T03:01:01.345Z,11.30
2023-12-15T03:03:28.901Z,11.00
2023-12-15T03:05:56.457Z,12.80
2023-12-15T03:08:26.058Z,12.70
2023-12-15T03:10:56.340Z,13.10
2023-12-15T03:13:24.458Z,12.30
2023-12-15T03:15:52.332Z,14.20
2023-12-15T03:18:19.852Z,15.50
2023-12-15T03:20:50.415Z,15.00
2023-12-15T03:23:17.887Z,15.20
2023-12-15T03:25:45.372Z,15.40
2023-12-15T03:28:13.616Z,15.90
2023-12-15T03:30:41.155Z,16.10
2023-12-15T03:33:08.694Z,15.80
2023-12-15T03:35:36.230Z,17.70
2023-12-15T03:38:04.294Z,16.50
2023-12-15T03:40:33.179Z,15.40
2023-12-15T03:43:01.115Z,15.70
2023-12-15T03:45:31.710Z,14.70
2023-12-15T03:47:59.576Z,14.70
2023-12-15T03:50:27.241Z,15.60
2023-12-15T03:52:54.927Z,15.80
2023-12-15T03:55:22.592Z,16.40
2023-12-15T03:57:50.120Z,15.90
2023-12-15T04:00:18.574Z,16.60
2023-12-15T04:02:46.155Z,15.00
2023-12-15T04:05:14.868Z,14.70
2023-12-15T04:07:42.366Z,14.10
2023-12-15T04:10:10.577Z,14.60
2023-12-15T04:12:38.115Z,15.00
2023-12-15T04:15:09.812Z,14.10
2023-12-15T04:17:43.717Z,11.60
2023-12-15T04:20:12.426Z,12.10
2023-12-15T04:22:40.532Z,12.80
2023-12-15T04:25:08.378Z,12.20
2023-12-15T04:27:38.188Z,14.20
2023-12-15T04:30:08.970Z,13.80
2023-12-15T04:32:36.675Z,13.70
2023-12-15T04:35:04.891Z,12.60
2023-12-15T04:37:32.417Z,11.30
2023-12-15T04:39:59.924Z,10.30
2023-12-15T04:42:29.333Z,9.90
2023-12-15T04:44:56.797Z,10.10
2023-12-15T04:47:24.609Z,10.90
2023-12-15T04:49:52.116Z,9.00
2023-12-15T04:52:21.048Z,9.80
2023-12-15T04:54:48.533Z,10.40
2023-12-15T04:57:16.357Z,10.70
2023-12-15T04:59:44.113Z,10.20
2023-12-15T05:02:11.687Z,9.20
2023-12-15T05:04:41.391Z,10.10
2023-12-15T05:07:09.716Z,9.50
2023-12-15T05:09:37.653Z,7.90
2023-12-15T05:12:05.701Z,9.80
2023-12-15T05:14:34.368Z,9.00
2023-12-15T05:17:03.977Z,8.80
2023-12-15T05:19:32.101Z,9.40
2023-12-15T05:21:59.713Z,8.90
2023-12-15T05:24:27.604Z,8.30
2023-12-15T05:26:55.050Z,9.60
2023-12-15T05:29:23.191Z,8.90
2023-12-15T05:31:51.161Z,9.40
2023-12-15T05:34:18.716Z,9.90
2023-12-15T05:36:46.271Z,8.50
2023-12-15T05:39:16.020Z,8.20
2023-12-15T05:41:45.295Z,7.90
2023-12-15T05:44:14.669Z,7.80
2023-12-15T05:46:42.856Z,6.80
2023-12-15T05:49:13.713Z,7.30
2023-12-15T05:51:48.027Z,6.80
2023-12-15T05:54:16.500Z,6.90
2023-12-15T05:56:44.032Z,6.80
2023-12-15T05:59:11.523Z,6.90
2023-12-15T06:01:39.053Z,6.50
2023-12-15T06:04:07.280Z,6.00
2023-12-15T06:06:34.813Z,6.50
2023-12-15T06:09:03.667Z,6.40
2023-12-15T06:11:31.240Z,5.80
2023-12-15T06:13:58.848Z,6.40
2023-12-15T06:16:26.538Z,6.10
2023-12-15T06:18:54.650Z,6.00
2023-12-15T06:21:26.035Z,6.40
2023-12-15T06:23:54.142Z,6.60
2023-12-15T06:26:23.273Z,6.60
2023-12-15T06:28:50.885Z,7.60
2023-12-15T06:31:18.472Z,7.70
2023-12-15T06:33:46.085Z,8.10
2023-12-15T06:36:14.154Z,8.40
2023-12-15T06:38:44.429Z,8.90
2023-12-15T06:41:19.998Z,7.90
2023-12-15T06:43:48.042Z,8.40
2023-12-15T06:46:15.501Z,8.10
2023-12-15T06:48:43.576Z,8.00
2023-12-15T06:51:11.211Z,8.00
2023-12-15T06:53:38.938Z,8.10
2023-12-15T06:56:07.564Z,8.00
2023-12-15T06:58:35.099Z,6.40
2023-12-15T07:01:03.539Z,6.80
2023-12-15T07:03:32.205Z,6.60
2023-12-15T07:05:59.914Z,6.60
2023-12-15T07:08:27.521Z,7.40
2023-12-15T07:10:55.061Z,6.80
2023-12-15T07:13:22.545Z,6.60
2023-12-15T07:15:50.403Z,6.40
2023-12-15T07:18:18.313Z,7.00
2023-12-15T07:20:45.960Z,6.20
2023-12-15T07:23:14.142Z,6.60
2023-12-15T07:25:42.439Z,6.20
2023-12-15T07:28:13.059Z,7.20
2023-12-15T07:30:40.631Z,6.40
2023-12-15T07:33:12.438Z,7.00
2023-12-15T07:35:40.038Z,6.00
2023-12-15T07:38:08.758Z,7.00
2023-12-15T07:40:36.522Z,7.10
2023-12-15T07:43:04.217Z,7.20
2023-12-15T07:45:31.926Z,6.00
2023-12-15T07:48:00.119Z,6.70
2023-12-15T07:50:30.698Z,6.30
2023-12-15T07:52:59.813Z,6.50
2023-12-15T07:55:27.408Z,5.70
2023-12-15T07:58:02.153Z,5.30
2023-12-15T08:00:32.072Z,5.70
2023-12-15T08:02:59.626Z,6.90
2023-12-15T08:05:28.183Z,7.00
2023-12-15T08:07:55.776Z,7.50
2023-12-15T08:10:26.969Z,7.40
2023-12-15T08:12:54.657Z,6.40
2023-12-15T08:15:22.473Z,7.80
2023-12-15T08:17:52.844Z,8.60
2023-12-15T08:20:20.607Z,8.20
2023-12-15T08:22:48.113Z,8.40
2023-12-15T08:25:16.060Z,7.60
2023-12-15T08:27:43.574Z,7.70
2023-12-15T08:33:29.385Z,7.20
2023-12-15T08:35:56.447Z,7.20
2023-12-15T08:38:25.567Z,7.70
2023-12-15T08:40:53.309Z,6.60
2023-12-15T08:43:19.970Z,9.30
2023-12-15T08:45:47.099Z,6.30
2023-12-15T08:48:14.327Z,6.40
2023-12-15T08:50:41.371Z,6.00
2023-12-15T08:53:09.071Z,5.90
2023-12-15T08:55:36.934Z,6.20
2023-12-15T08:58:04.208Z,5.70
2023-12-15T09:00:31.610Z,6.90
2023-12-15T09:02:58.721Z,6.30
2023-12-15T09:07:58.760Z,6.20
2023-12-15T09:10:25.975Z,6.90
2023-12-15T09:12:53.886Z,8.40
2023-12-15T09:15:20.937Z,7.90
2023-12-15T09:17:48.299Z,6.70
2023-12-15T09:20:15.346Z,6.60
2023-12-15T09:22:42.212Z,6.60
2023-12-15T09:25:09.369Z,6.30
2023-12-15T09:27:36.506Z,6.90
2023-12-15T09:30:03.965Z,6.60
2023-12-15T09:32:31.568Z,6.40
2023-12-15T09:34:58.444Z,6.40
2023-12-15T09:37:25.258Z,6.20
2023-12-15T09:39:56.364Z,6.70
2023-12-15T09:42:24.241Z,5.80
2023-12-15T09:45:00.922Z,6.60
2023-12-15T09:47:35.880Z,5.50
2023-12-15T09:50:04.787Z,6.80
2023-12-15T09:52:33.555Z,5.80
2023-12-15T09:55:00.634Z,6.40
2023-12-15T09:57:27.603Z,5.50
2023-12-15T09:59:54.596Z,4.80
2023-12-15T10:02:22.023Z,5.70
2023-12-15T10:04:49.684Z,5.70
2023-12-15T10:07:16.527Z,5.20
2023-12-15T10:09:43.911Z,5.20
2023-12-15T10:12:10.907Z,5.90
2023-12-15T10:14:38.829Z,7.30
2023-12-15T10:17:12.120Z,12.10
2023-12-15T10:19:39.300Z,7.90
2023-12-15T10:22:06.470Z,4.80
2023-12-15T10:24:34.228Z,4.70
2023-12-15T10:27:04.201Z,4.70
2023-12-15T10:29:31.742Z,5.30
2023-12-15T10:31:58.859Z,5.00
2023-12-15T10:34:26.701Z,5.70
2023-12-15T10:36:54.460Z,6.50
2023-12-15T10:39:22.608Z,6.30
2023-12-15T10:41:52.581Z,5.40
2023-12-15T10:44:19.765Z,5.90
2023-12-15T10:46:47.938Z,5.40
2023-12-15T10:49:14.958Z,4.90
2023-12-15T10:51:41.978Z,7.10
2023-12-15T10:54:11.674Z,6.10
2023-12-15T10:56:39.116Z,4.70
2023-12-15T10:59:10.163Z,4.50
2023-12-15T11:01:39.243Z,4.80
2023-12-15T11:04:22.938Z,5.00
2023-12-15T11:06:49.858Z,5.30
2023-12-15T11:09:43.082Z,5.40
2023-12-15T11:12:25.526Z,4.80
2023-12-15T11:14:54.193Z,7.60
2023-12-15T11:17:22.121Z,6.20
2023-12-15T11:19:52.462Z,5.60
2023-12-15T11:22:21.640Z,4.90
2023-12-15T11:24:48.506Z,6.40
2023-12-15T11:27:15.840Z,5.30
2023-12-15T11:29:43.036Z,5.90
2023-12-15T11:32:30.034Z,4.80
2023-12-15T11:34:58.574Z,4.60
2023-12-15T11:37:26.814Z,5.50
2023-12-15T11:39:54.819Z,7.30
2023-12-15T11:42:25.354Z,5.20
2023-12-15T11:44:53.445Z,5.00
2023-12-15T11:47:20.562Z,4.20
2023-12-15T11:49:49.935Z,4.90
2023-12-15T11:52:16.794Z,4.90
2023-12-15T11:54:43.971Z,7.10
2023-12-15T11:57:10.969Z,4.80
2023-12-15T11:59:40.460Z,5.00
2023-12-15T12:02:07.594Z,5.00
2023-12-15T12:04:35.073Z,3.80
2023-12-15T12:07:02.922Z,4.50
2023-12-15T12:09:31.481Z,5.10
2023-12-15T12:11:58.540Z,4.70
2023-12-15T12:14:28.008Z,4.50
2023-12-15T12:16:56.821Z,5.00
2023-12-15T12:19:24.029Z,3.90
2023-12-15T12:21:57.290Z,4.40
2023-12-15T12:24:25.623Z,4.50
2023-12-15T12:26:52.910Z,3.70
2023-12-15T12:29:20.483Z,4.70
2023-12-15T12:31:47.431Z,5.00
2023-12-15T12:34:16.094Z,5.50
2023-12-15T12:36:44.210Z,4.20
2023-12-15T12:39:13.792Z,4.00
2023-12-15T12:41:40.856Z,3.80
2023-12-15T12:44:08.586Z,3.80
2023-12-15T12:46:35.802Z,4.20
2023-12-15T12:49:03.542Z,6.10
2023-12-15T12:51:30.622Z,3.60
2023-12-15T12:54:03.510Z,5.20
2023-12-15T12:56:30.374Z,4.00
2023-12-15T12:58:59.596Z,4.20
2023-12-15T13:01:29.205Z,4.70
2023-12-15T13:03:55.995Z,6.00
2023-12-15T13:06:23.173Z,6.10
2023-12-15T13:08:50.816Z,3.90
2023-12-15T13:11:17.654Z,4.80
2023-12-15T13:13:44.974Z,4.60
2023-12-15T13:16:14.538Z,4.40
2023-12-15T13:18:42.986Z,4.10
2023-12-15T13:21:10.862Z,3.80
2023-12-15T13:23:37.773Z,4.50
2023-12-15T13:26:04.933Z,4.30
2023-12-15T13:28:35.978Z,5.40
2023-12-15T13:31:04.548Z,4.30
2023-12-15T13:33:33.661Z,5.00
2023-12-15T13:36:10.240Z,4.90
2023-12-15T13:38:47.268Z,4.50
2023-12-15T13:41:14.633Z,4.10
2023-12-15T13:43:44.902Z,4.80
2023-12-15T13:46:11.736Z,5.10
2023-12-15T13:48:39.198Z,4.30
2023-12-15T13:51:06.304Z,5.60
2023-12-15T13:53:33.459Z,4.50
2023-12-15T13:56:01.268Z,4.20
2023-12-15T13:58:28.535Z,4.60
2023-12-15T14:00:56.077Z,5.90
2023-12-15T14:03:23.124Z,5.00
2023-12-15T14:05:50.130Z,4.50
2023-12-15T14:08:20.628Z,5.30
2023-12-15T14:10:49.037Z,3.60
2023-12-15T14:13:16.467Z,4.00
2023-12-15T14:15:43.452Z,4.60
2023-12-15T14:18:12.627Z,3.80
2023-12-15T14:20:42.480Z,3.80
2023-12-15T14:23:10.093Z,5.90
2023-12-15T14:25:36.863Z,5.80
2023-12-15T14:28:04.133Z,3.70
2023-12-15T14:30:31.309Z,3.60
2023-12-15T14:33:02.334Z,5.10
2023-12-15T14:35:29.369Z,4.60
2023-12-15T14:37:59.848Z,4.60
2023-12-15T14:40:31.504Z,5.90
2023-12-15T14:42:58.547Z,5.40
2023-12-15T14:45:27.691Z,4.30
2023-12-15T14:48:19.056Z,5.60
2023-12-15T14:50:46.172Z,5.80
2023-12-15T14:53:13.105Z,5.90
2023-12-15T14:55:40.296Z,4.60
2023-12-15T14:58:07.276Z,4.60
2023-12-15T15:00:35.145Z,5.10
2023-12-15T15:03:06.007Z,4.80
2023-12-15T15:05:33.841Z,4.80
2023-12-15T15:08:01.196Z,4.40
2023-12-15T15:10:28.461Z,4.80
2023-12-15T15:12:55.898Z,4.70
2023-12-15T15:15:22.666Z,4.70
2023-12-15T15:17:50.874Z,4.80
2023-12-15T15:20:18.397Z,4.70
2023-12-15T15:22:45.808Z,5.10
2023-12-15T15:25:13.456Z,5.10
2023-12-15T15:27:40.644Z,6.90
2023-12-15T15:30:08.225Z,4.90
2023-12-15T15:32:37.505Z,5.30
2023-12-15T15:37:36.547Z,5.50
2023-12-15T15:40:07.490Z,4.50
2023-12-15T15:42:35.032Z,4.70
2023-12-15T15:45:02.839Z,5.30
2023-12-15T15:47:30.959Z,6.30
2023-12-15T15:49:58.572Z,4.60
2023-12-15T15:52:26.714Z,5.10
2023-12-15T15:54:53.650Z,5.10
2023-12-15T15:57:20.964Z,5.40
2023-12-15T15:59:49.079Z,5.40
2023-12-15T16:02:16.329Z,5.50
2023-12-15T16:04:43.483Z,6.00
2023-12-15T16:07:13.380Z,6.10
2023-12-15T16:09:40.901Z,6.80
2023-12-15T16:12:12.521Z,6.20
2023-12-15T16:14:39.548Z,5.70
2023-12-15T16:17:07.051Z,7.70
2023-12-15T16:19:38.618Z,5.10
2023-12-15T16:22:05.650Z,5.70
2023-12-15T16:24:32.622Z,5.20
2023-12-15T16:27:05.038Z,5.00
2023-12-15T16:29:31.928Z,8.40
2023-12-15T16:31:59.613Z,6.40
2023-12-15T16:34:29.802Z,5.50
2023-12-15T16:36:56.538Z,5.40
2023-12-15T16:39:24.309Z,6.00
2023-12-15T16:41:51.249Z,6.00
2023-12-15T16:44:20.624Z,6.60
2023-12-15T16:46:54.555Z,6.80
2023-12-15T16:49:23.375Z,5.80
2023-12-15T16:51:51.210Z,4.90
2023-12-15T16:54:18.054Z,5.90
2023-12-15T16:56:45.490Z,7.00
2023-12-15T16:59:13.794Z,6.80
2023-12-15T17:01:41.303Z,9.80
2023-12-15T17:04:09.053Z,7.20
2023-12-15T17:06:35.918Z,6.90
2023-12-15T17:09:02.827Z,6.00
2023-12-15T17:11:30.000Z,6.10
2023-12-15T17:13:57.542Z,7.40
2023-12-15T17:16:24.529Z,7.00
2023-12-15T17:18:51.875Z,6.70
2023-12-15T17:21:19.945Z,6.40
2023-12-15T17:23:48.774Z,6.80
2023-12-15T17:26:20.005Z,6.00
2023-12-15T17:28:47.008Z,5.70
2023-12-15T17:31:14.232Z,7.20
2023-12-15T17:33:41.599Z,9.50
2023-12-15T17:36:09.229Z,8.30
2023-12-15T17:38:35.935Z,7.60
2023-12-15T17:41:03.272Z,7.00
2023-12-15T17:43:31.349Z,6.50
2023-12-15T17:45:58.176Z,7.80
2023-12-15T17:48:31.602Z,7.60
2023-12-15T17:51:00.101Z,6.40
2023-12-15T17:53:29.512Z,6.20
2023-12-15T17:55:57.528Z,7.20
2023-12-15T17:58:24.474Z,6.60
2023-12-15T18:00:54.105Z,7.00
2023-12-15T18:03:22.355Z,8.20
2023-12-15T18:05:51.888Z,8.10
2023-12-15T18:08:18.898Z,7.20
2023-12-15T18:10:46.367Z,6.20
2023-12-15T18:13:17.807Z,5.70
2023-12-15T18:15:49.123Z,7.50
2023-12-15T18:18:16.010Z,6.80
2023-12-15T18:20:42.971Z,6.30
2023-12-15T18:23:14.237Z,6.70
2023-12-15T18:25:41.945Z,7.10
2023-12-15T18:28:15.836Z,7.40
2023-12-15T18:30:48.025Z,6.20
2023-12-15T18:33:15.254Z,5.90
2023-12-15T18:35:42.495Z,6.50
2023-12-15T18:38:09.301Z,6.00
2023-12-15T18:40:36.076Z,6.40
2023-12-15T18:43:03.685Z,5.50
2023-12-15T18:45:30.861Z,6.80
2023-12-15T18:47:57.664Z,6.30
2023-12-15T18:50:24.541Z,6.20
2023-12-15T18:52:51.612Z,7.00
2023-12-15T18:55:19.548Z,7.40
2023-12-15T18:57:51.764Z,6.50
2023-12-15T19:00:22.376Z,6.40
2023-12-15T19:02:52.165Z,6.60
2023-12-15T19:05:19.511Z,6.70
2023-12-15T19:07:51.136Z,6.50
2023-12-15T19:10:19.437Z,7.60
2023-12-15T19:12:46.921Z,7.10
2023-12-15T19:15:24.514Z,5.90
2023-12-15T19:17:51.722Z,6.50
2023-12-15T19:20:18.545Z,7.00
2023-12-15T19:22:45.876Z,6.50
2023-12-15T19:25:13.990Z,6.40
2023-12-15T19:27:41.372Z,7.70
2023-12-15T19:30:08.617Z,6.70
2023-12-15T19:32:36.779Z,7.30
2023-12-15T19:35:05.347Z,7.70
2023-12-15T19:37:32.576Z,7.10
2023-12-15T19:40:02.575Z,7.80
2023-12-15T19:42:32.167Z,9.60
2023-12-15T19:44:59.054Z,9.20
2023-12-15T19:47:26.061Z,8.60
2023-12-15T19:49:54.479Z,10.30
2023-12-15T19:52:23.673Z,10.90
2023-12-15T19:54:50.794Z,10.20
2023-12-15T19:57:17.556Z,11.10
2023-12-15T19:59:47.892Z,11.90
2023-12-15T20:02:19.114Z,11.20
2023-12-15T20:04:48.127Z,9.70
2023-12-15T20:07:16.010Z,11.30
2023-12-15T20:09:43.935Z,11.40
2023-12-15T20:12:11.261Z,12.50
2023-12-15T20:14:38.514Z,10.70
2023-12-15T20:17:05.602Z,9.90
2023-12-15T20:19:33.027Z,9.50
2023-12-15T20:22:00.446Z,11.10
2023-12-15T20:24:27.989Z,12.50
2023-12-15T20:26:54.710Z,9.70
2023-12-15T20:29:22.072Z,10.60
2023-12-15T20:31:48.757Z,9.60
2023-12-15T20:34:17.223Z,9.60
2023-12-15T20:36:44.436Z,8.70
2023-12-15T20:39:15.577Z,9.80
2023-12-15T20:41:43.561Z,9.30
2023-12-15T20:44:13.617Z,12.20
2023-12-15T20:46:45.222Z,9.70
2023-12-15T20:50:52.222Z,10.50
2023-12-15T20:53:18.989Z,10.30
2023-12-15T20:55:46.102Z,11.30
2023-12-15T20:58:16.654Z,11.80
2023-12-15T21:00:43.605Z,10.80
2023-12-15T21:03:11.109Z,10.70
2023-12-15T21:05:40.019Z,11.60
2023-12-15T21:08:08.194Z,10.90
2023-12-15T21:10:35.128Z,10.70
2023-12-15T21:13:02.233Z,9.50
2023-12-15T21:15:31.629Z,12.40
2023-12-15T21:17:59.467Z,11.50
2023-12-15T21:20:26.418Z,14.00
2023-12-15T21:22:53.831Z,12.90
2023-12-15T21:25:20.729Z,11.90
2023-12-15T21:27:47.723Z,13.30
2023-12-15T21:30:22.841Z,13.70
2023-12-15T21:32:50.064Z,15.30
2023-12-15T21:35:17.088Z,10.90
2023-12-15T21:37:44.554Z,11.60
2023-12-15T21:40:11.925Z,14.30
2023-12-15T21:42:39.750Z,13.00
2023-12-15T21:45:08.472Z,14.40
2023-12-15T21:47:36.206Z,13.10
2023-12-15T21:50:03.457Z,12.10
2023-12-15T21:52:33.376Z,12.60
2023-12-15T21:55:01.213Z,11.70
2023-12-15T21:57:28.763Z,11.40
2023-12-15T21:59:56.396Z,11.30
2023-12-15T22:02:23.812Z,12.50
2023-12-15T22:04:50.895Z,12.00
2023-12-15T22:07:18.250Z,11.20
2023-12-15T22:09:45.253Z,11.10
2023-12-15T22:12:12.032Z,10.70
2023-12-15T22:14:45.026Z,10.40
2023-12-15T22:17:12.911Z,9.60
2023-12-15T22:19:40.459Z,8.10
2023-12-15T22:22:07.765Z,9.00
2023-12-15T22:24:42.809Z,9.50
2023-12-15T22:27:10.839Z,10.10
2023-12-15T22:29:38.939Z,8.20
2023-12-15T22:32:06.882Z,7.90
2023-12-15T22:34:33.713Z,6.50
2023-12-15T22:37:00.791Z,6.90
2023-12-15T22:39:28.610Z,6.50
2023-12-15T22:41:55.626Z,7.80
2023-12-15T22:44:22.627Z,6.70
2023-12-15T22:46:49.858Z,7.10
2023-12-15T22:49:16.917Z,8.00
2023-12-15T22:51:43.741Z,7.50
2023-12-15T22:54:12.333Z,7.20
2023-12-15T22:56:43.004Z,6.70
2023-12-15T22:59:12.166Z,5.80
2023-12-15T23:01:39.679Z,6.30
2023-12-15T23:04:09.852Z,6.50
2023-12-15T23:06:36.598Z,6.70
2023-12-15T23:09:07.756Z,5.70
2023-12-15T23:11:36.269Z,6.40
2023-12-15T23:14:04.359Z,5.70
2023-12-15T23:16:31.917Z,5.60
2023-12-15T23:18:59.712Z,5.60
2023-12-15T23:21:29.272Z,5.50
2023-12-15T23:23:57.048Z,5.50
2023-12-15T23:26:24.863Z,5.30
2023-12-15T23:28:52.355Z,5.70
2023-12-15T23:31:18.993Z,6.10
2023-12-15T23:33:46.078Z,6.20
2023-12-15T23:36:14.045Z,7.30
2023-12-15T23:38:41.115Z,5.60
2023-12-15T23:41:08.461Z,5.60
2023-12-15T23:43:35.457Z,5.00
2023-12-15T23:46:02.797Z,5.30
2023-12-15T23:48:30.626Z,6.20
2023-12-15T23:50:57.537Z,5.50
2023-12-15T23:53:24.437Z,4.80
2023-12-15T23:55:51.446Z,5.20
2023-12-15T23:58:19.025Z,5.20
